sensor_id;sensor_type;location;lat;lon;timestamp;temperature;humidity
53310;DHT22;39197;53.200;5.792;2024-01-30T00:01:40;6.40;99.90
53310;DHT22;39197;53.200;5.792;2024-01-30T00:04:05;6.40;99.90
53310;DHT22;39197;53.200;5.792;2024-01-30T00:06:31;6.30;99.90
53310;DHT22;39197;53.200;5.792;2024-01-30T00:08:57;6.30;99.90
53310;DHT22;39197;53.200;5.792;2024-01-30T00:11:22;6.20;99.90
53310;DHT22;39197;53.200;5.792;2024-01-30T00:13:51;6.20;99.90
53310;DHT22;39197;53.200;5.792;2024-01-30T00:16:23;6.20;99.90
53310;DHT22;39197;53.200;5.792;2024-01-30T00:18:53;6.20;99.90
53310;DHT22;39197;53.200;5.792;2024-01-30T00:21:20;6.10;99.90
53310;DHT22;39197;53.200;5.792;2024-01-30T00:23:46;6.20;99.90
53310;DHT22;39197;53.200;5.792;2024-01-30T00:26:12;6.20;99.90
53310;DHT22;39197;53.200;5.792;2024-01-30T00:28:38;6.20;99.90
53310;DHT22;39197;53.200;5.792;2024-01-30T00:31:04;6.20;99.90
53310;DHT22;39197;53.200;5.792;2024-01-30T00:33:29;6.20;99.90
53310;DHT22;39197;53.200;5.792;2024-01-30T00:35:55;6.20;99.90
53310;DHT22;39197;53.200;5.792;2024-01-30T00:38:21;6.10;99.90
53310;DHT22;39197;53.200;5.792;2024-01-30T00:40:47;6.10;99.90
53310;DHT22;39197;53.200;5.792;2024-01-30T00:43:12;6.10;99.90
53310;DHT22;39197;53.200;5.792;2024-01-30T00:45:38;6.20;99.90
53310;DHT22;39197;53.200;5.792;2024-01-30T00:48:04;6.10;99.90
53310;DHT22;39197;53.200;5.792;2024-01-30T00:50:29;6.20;99.90
53310;DHT22;39197;53.200;5.792;2024-01-30T00:52:55;6.20;99.90
53310;DHT22;39197;53.200;5.792;2024-01-30T00:55:21;6.20;99.90
53310;DHT22;39197;53.200;5.792;2024-01-30T00:57:46;6.20;99.90
53310;DHT22;39197;53.200;5.792;2024-01-30T01:00:13;6.10;99.90
53310;DHT22;39197;53.200;5.792;2024-01-30T01:02:41;6.10;99.90
53310;DHT22;39197;53.200;5.792;2024-01-30T01:05:07;6.10;99.90
53310;DHT22;39197;53.200;5.792;2024-01-30T01:07:32;6.10;99.90
53310;DHT22;39197;53.200;5.792;2024-01-30T01:09:58;6.00;99.90
53310;DHT22;39197;53.200;5.792;2024-01-30T01:12:23;6.00;99.90
53310;DHT22;39197;53.200;5.792;2024-01-30T01:14:49;6.00;99.90
53310;DHT22;39197;53.200;5.792;2024-01-30T01:17:14;6.10;99.90
53310;DHT22;39197;53.200;5.792;2024-01-30T01:19:40;6.00;99.90
53310;DHT22;39197;53.200;5.792;2024-01-30T01:22:06;6.10;99.90
53310;DHT22;39197;53.200;5.792;2024-01-30T01:24:31;6.10;99.90
53310;DHT22;39197;53.200;5.792;2024-01-30T01:26:58;6.10;99.90
53310;DHT22;39197;53.200;5.792;2024-01-30T01:29:24;6.10;99.90
53310;DHT22;39197;53.200;5.792;2024-01-30T01:31:58;6.10;99.90
53310;DHT22;39197;53.200;5.792;2024-01-30T01:34:24;6.10;99.90
53310;DHT22;39197;53.200;5.792;2024-01-30T01:36:50;6.10;99.90
53310;DHT22;39197;53.200;5.792;2024-01-30T01:39:16;6.10;99.90
53310;DHT22;39197;53.200;5.792;2024-01-30T01:41:42;6.10;99.90
53310;DHT22;39197;53.200;5.792;2024-01-30T01:44:08;6.00;99.90
53310;DHT22;39197;53.200;5.792;2024-01-30T01:46:34;6.10;99.90
53310;DHT22;39197;53.200;5.792;2024-01-30T01:49:02;6.10;99.90
53310;DHT22;39197;53.200;5.792;2024-01-30T01:51:30;6.20;99.90
53310;DHT22;39197;53.200;5.792;2024-01-30T01:53:57;6.20;99.90
53310;DHT22;39197;53.200;5.792;2024-01-30T01:56:24;6.20;99.90
53310;DHT22;39197;53.200;5.792;2024-01-30T01:58:51;6.10;99.90
53310;DHT22;39197;53.200;5.792;2024-01-30T02:01:20;6.20;99.90
53310;DHT22;39197;53.200;5.792;2024-01-30T02:03:47;6.20;99.90
53310;DHT22;39197;53.200;5.792;2024-01-30T02:06:13;6.20;99.90
53310;DHT22;39197;53.200;5.792;2024-01-30T02:08:40;6.30;99.90
53310;DHT22;39197;53.200;5.792;2024-01-30T02:11:06;6.30;99.90
53310;DHT22;39197;53.200;5.792;2024-01-30T02:13:31;6.30;99.90
53310;DHT22;39197;53.200;5.792;2024-01-30T02:15:57;6.40;99.90
53310;DHT22;39197;53.200;5.792;2024-01-30T02:18:22;6.30;99.90
53310;DHT22;39197;53.200;5.792;2024-01-30T02:20:48;6.40;99.90
53310;DHT22;39197;53.200;5.792;2024-01-30T02:23:15;6.40;99.90
53310;DHT22;39197;53.200;5.792;2024-01-30T02:25:42;6.40;99.90
53310;DHT22;39197;53.200;5.792;2024-01-30T02:28:14;6.50;99.90
53310;DHT22;39197;53.200;5.792;2024-01-30T02:30:42;6.50;99.90
53310;DHT22;39197;53.200;5.792;2024-01-30T02:33:08;6.50;99.90
53310;DHT22;39197;53.200;5.792;2024-01-30T02:35:33;6.50;99.90
53310;DHT22;39197;53.200;5.792;2024-01-30T02:37:59;6.60;99.90
53310;DHT22;39197;53.200;5.792;2024-01-30T02:40:25;6.60;99.90
53310;DHT22;39197;53.200;5.792;2024-01-30T02:42:51;6.60;99.90
53310;DHT22;39197;53.200;5.792;2024-01-30T02:45:16;6.60;99.90
53310;DHT22;39197;53.200;5.792;2024-01-30T02:47:42;6.50;99.90
53310;DHT22;39197;53.200;5.792;2024-01-30T02:50:08;6.50;99.90
53310;DHT22;39197;53.200;5.792;2024-01-30T02:52:34;6.60;99.90
53310;DHT22;39197;53.200;5.792;2024-01-30T02:55:00;6.60;99.90
53310;DHT22;39197;53.200;5.792;2024-01-30T02:57:25;6.60;99.90
53310;DHT22;39197;53.200;5.792;2024-01-30T02:59:51;6.50;99.90
53310;DHT22;39197;53.200;5.792;2024-01-30T03:02:17;6.50;99.90
53310;DHT22;39197;53.200;5.792;2024-01-30T03:04:42;6.50;99.90
53310;DHT22;39197;53.200;5.792;2024-01-30T03:07:08;6.50;99.90
53310;DHT22;39197;53.200;5.792;2024-01-30T03:09:34;6.50;99.90
53310;DHT22;39197;53.200;5.792;2024-01-30T03:11:59;6.50;99.90
53310;DHT22;39197;53.200;5.792;2024-01-30T03:14:25;6.50;99.90
53310;DHT22;39197;53.200;5.792;2024-01-30T03:16:50;6.50;99.90
53310;DHT22;39197;53.200;5.792;2024-01-30T03:19:16;6.40;99.90
53310;DHT22;39197;53.200;5.792;2024-01-30T03:21:42;6.50;99.90
53310;DHT22;39197;53.200;5.792;2024-01-30T03:24:07;6.40;99.90
53310;DHT22;39197;53.200;5.792;2024-01-30T03:26:34;6.30;99.90
53310;DHT22;39197;53.200;5.792;2024-01-30T03:29:00;6.40;99.90
53310;DHT22;39197;53.200;5.792;2024-01-30T03:31:25;6.40;99.90
53310;DHT22;39197;53.200;5.792;2024-01-30T03:33:51;6.40;99.90
53310;DHT22;39197;53.200;5.792;2024-01-30T03:36:16;6.40;99.90
53310;DHT22;39197;53.200;5.792;2024-01-30T03:38:42;6.30;99.90
53310;DHT22;39197;53.200;5.792;2024-01-30T03:41:08;6.40;99.90
53310;DHT22;39197;53.200;5.792;2024-01-30T03:43:35;6.40;99.90
53310;DHT22;39197;53.200;5.792;2024-01-30T03:46:01;6.30;99.90
53310;DHT22;39197;53.200;5.792;2024-01-30T03:48:28;6.30;99.90
53310;DHT22;39197;53.200;5.792;2024-01-30T03:50:54;6.30;99.90
53310;DHT22;39197;53.200;5.792;2024-01-30T03:53:19;6.50;99.90
53310;DHT22;39197;53.200;5.792;2024-01-30T03:55:45;6.40;99.90
53310;DHT22;39197;53.200;5.792;2024-01-30T03:58:10;6.50;99.90
53310;DHT22;39197;53.200;5.792;2024-01-30T04:00:36;6.50;99.90
53310;DHT22;39197;53.200;5.792;2024-01-30T04:03:02;6.50;99.90
53310;DHT22;39197;53.200;5.792;2024-01-30T04:05:27;6.50;99.90
53310;DHT22;39197;53.200;5.792;2024-01-30T04:07:53;6.50;99.90
53310;DHT22;39197;53.200;5.792;2024-01-30T04:10:19;6.50;99.90
53310;DHT22;39197;53.200;5.792;2024-01-30T04:12:44;6.50;99.90
53310;DHT22;39197;53.200;5.792;2024-01-30T04:15:10;6.50;99.90
53310;DHT22;39197;53.200;5.792;2024-01-30T04:17:36;6.50;99.90
53310;DHT22;39197;53.200;5.792;2024-01-30T04:20:01;6.60;99.90
53310;DHT22;39197;53.200;5.792;2024-01-30T04:22:27;6.60;99.90
53310;DHT22;39197;53.200;5.792;2024-01-30T04:24:52;6.60;99.90
53310;DHT22;39197;53.200;5.792;2024-01-30T04:27:18;6.70;99.90
53310;DHT22;39197;53.200;5.792;2024-01-30T04:29:44;6.60;99.90
53310;DHT22;39197;53.200;5.792;2024-01-30T04:32:09;6.60;99.90
53310;DHT22;39197;53.200;5.792;2024-01-30T04:34:36;6.60;99.90
53310;DHT22;39197;53.200;5.792;2024-01-30T04:37:02;6.60;99.90
53310;DHT22;39197;53.200;5.792;2024-01-30T04:39:28;6.70;99.90
53310;DHT22;39197;53.200;5.792;2024-01-30T04:41:54;6.70;99.90
53310;DHT22;39197;53.200;5.792;2024-01-30T04:44:19;6.70;99.90
53310;DHT22;39197;53.200;5.792;2024-01-30T04:46:45;6.70;99.90
53310;DHT22;39197;53.200;5.792;2024-01-30T04:49:11;6.80;99.90
53310;DHT22;39197;53.200;5.792;2024-01-30T04:51:36;6.70;99.90
53310;DHT22;39197;53.200;5.792;2024-01-30T04:54:02;6.70;99.90
53310;DHT22;39197;53.200;5.792;2024-01-30T04:56:28;6.80;99.90
53310;DHT22;39197;53.200;5.792;2024-01-30T04:58:53;6.80;99.90
53310;DHT22;39197;53.200;5.792;2024-01-30T05:01:19;6.80;99.90
53310;DHT22;39197;53.200;5.792;2024-01-30T05:03:44;6.80;99.90
53310;DHT22;39197;53.200;5.792;2024-01-30T05:06:10;6.90;99.90
53310;DHT22;39197;53.200;5.792;2024-01-30T05:08:36;6.80;99.90
53310;DHT22;39197;53.200;5.792;2024-01-30T05:11:05;6.80;99.90
53310;DHT22;39197;53.200;5.792;2024-01-30T05:13:31;6.80;99.90
53310;DHT22;39197;53.200;5.792;2024-01-30T05:15:57;6.80;99.90
53310;DHT22;39197;53.200;5.792;2024-01-30T05:18:23;6.80;99.90
53310;DHT22;39197;53.200;5.792;2024-01-30T05:20:50;6.80;99.90
53310;DHT22;39197;53.200;5.792;2024-01-30T05:23:16;6.80;99.90
53310;DHT22;39197;53.200;5.792;2024-01-30T05:25:41;6.90;99.90
53310;DHT22;39197;53.200;5.792;2024-01-30T05:28:07;6.90;99.90
53310;DHT22;39197;53.200;5.792;2024-01-30T05:30:32;6.90;99.90
53310;DHT22;39197;53.200;5.792;2024-01-30T05:32:58;6.90;99.90
53310;DHT22;39197;53.200;5.792;2024-01-30T05:35:24;7.00;99.90
53310;DHT22;39197;53.200;5.792;2024-01-30T05:37:49;7.00;99.90
53310;DHT22;39197;53.200;5.792;2024-01-30T05:40:15;7.00;99.90
53310;DHT22;39197;53.200;5.792;2024-01-30T05:42:41;7.00;99.90
53310;DHT22;39197;53.200;5.792;2024-01-30T05:45:07;7.00;99.90
53310;DHT22;39197;53.200;5.792;2024-01-30T05:47:34;7.10;99.90
53310;DHT22;39197;53.200;5.792;2024-01-30T05:49:59;7.10;99.90
53310;DHT22;39197;53.200;5.792;2024-01-30T05:52:25;7.10;99.90
53310;DHT22;39197;53.200;5.792;2024-01-30T05:54:50;7.10;99.90
53310;DHT22;39197;53.200;5.792;2024-01-30T05:57:16;7.20;99.90
53310;DHT22;39197;53.200;5.792;2024-01-30T05:59:43;7.10;99.90
53310;DHT22;39197;53.200;5.792;2024-01-30T06:02:10;7.10;99.90
53310;DHT22;39197;53.200;5.792;2024-01-30T06:04:36;7.10;99.90
53310;DHT22;39197;53.200;5.792;2024-01-30T06:07:02;7.20;99.90
53310;DHT22;39197;53.200;5.792;2024-01-30T06:09:28;7.10;99.90
53310;DHT22;39197;53.200;5.792;2024-01-30T06:11:54;7.20;99.90
53310;DHT22;39197;53.200;5.792;2024-01-30T06:14:20;7.20;99.90
53310;DHT22;39197;53.200;5.792;2024-01-30T06:16:46;7.20;99.90
53310;DHT22;39197;53.200;5.792;2024-01-30T06:19:11;7.20;99.90
53310;DHT22;39197;53.200;5.792;2024-01-30T06:21:37;7.30;99.90
53310;DHT22;39197;53.200;5.792;2024-01-30T06:24:04;7.30;99.90
53310;DHT22;39197;53.200;5.792;2024-01-30T06:26:30;7.30;99.90
53310;DHT22;39197;53.200;5.792;2024-01-30T06:28:55;7.30;99.90
53310;DHT22;39197;53.200;5.792;2024-01-30T06:31:21;7.30;99.90
53310;DHT22;39197;53.200;5.792;2024-01-30T06:33:47;7.30;99.90
53310;DHT22;39197;53.200;5.792;2024-01-30T06:36:12;7.20;99.90
53310;DHT22;39197;53.200;5.792;2024-01-30T06:38:38;7.20;99.90
53310;DHT22;39197;53.200;5.792;2024-01-30T06:41:04;7.20;99.90
53310;DHT22;39197;53.200;5.792;2024-01-30T06:43:29;7.20;99.90
53310;DHT22;39197;53.200;5.792;2024-01-30T06:45:55;7.30;99.90
53310;DHT22;39197;53.200;5.792;2024-01-30T06:48:20;7.30;99.90
53310;DHT22;39197;53.200;5.792;2024-01-30T06:50:46;7.20;99.90
53310;DHT22;39197;53.200;5.792;2024-01-30T06:53:13;7.30;99.90
53310;DHT22;39197;53.200;5.792;2024-01-30T06:55:38;7.20;99.90
53310;DHT22;39197;53.200;5.792;2024-01-30T06:58:04;7.20;99.90
53310;DHT22;39197;53.200;5.792;2024-01-30T07:00:29;7.20;99.90
53310;DHT22;39197;53.200;5.792;2024-01-30T07:02:55;7.30;99.90
53310;DHT22;39197;53.200;5.792;2024-01-30T07:05:21;7.30;99.90
53310;DHT22;39197;53.200;5.792;2024-01-30T07:07:47;7.20;99.90
53310;DHT22;39197;53.200;5.792;2024-01-30T07:10:13;7.30;99.90
53310;DHT22;39197;53.200;5.792;2024-01-30T07:12:38;7.30;99.90
53310;DHT22;39197;53.200;5.792;2024-01-30T07:15:04;7.30;99.90
53310;DHT22;39197;53.200;5.792;2024-01-30T07:17:33;7.40;99.90
53310;DHT22;39197;53.200;5.792;2024-01-30T07:19:59;7.30;99.90
53310;DHT22;39197;53.200;5.792;2024-01-30T07:22:25;7.40;99.90
53310;DHT22;39197;53.200;5.792;2024-01-30T07:24:50;7.40;99.90
53310;DHT22;39197;53.200;5.792;2024-01-30T07:27:17;7.50;99.90
53310;DHT22;39197;53.200;5.792;2024-01-30T07:29:43;7.40;99.90
53310;DHT22;39197;53.200;5.792;2024-01-30T07:32:10;7.40;99.90
53310;DHT22;39197;53.200;5.792;2024-01-30T07:34:35;7.50;99.90
53310;DHT22;39197;53.200;5.792;2024-01-30T07:37:01;7.40;99.90
53310;DHT22;39197;53.200;5.792;2024-01-30T07:39:28;7.40;99.90
53310;DHT22;39197;53.200;5.792;2024-01-30T07:41:53;7.50;99.90
53310;DHT22;39197;53.200;5.792;2024-01-30T07:44:20;7.50;99.90
53310;DHT22;39197;53.200;5.792;2024-01-30T07:46:45;7.50;99.90
53310;DHT22;39197;53.200;5.792;2024-01-30T07:49:11;7.60;99.90
53310;DHT22;39197;53.200;5.792;2024-01-30T07:51:36;7.50;99.90
53310;DHT22;39197;53.200;5.792;2024-01-30T07:54:02;7.50;99.90
53310;DHT22;39197;53.200;5.792;2024-01-30T07:56:28;7.50;99.90
53310;DHT22;39197;53.200;5.792;2024-01-30T07:58:53;7.70;99.90
53310;DHT22;39197;53.200;5.792;2024-01-30T08:01:19;7.60;99.90
53310;DHT22;39197;53.200;5.792;2024-01-30T08:03:45;7.70;99.90
53310;DHT22;39197;53.200;5.792;2024-01-30T08:06:10;7.80;99.90
53310;DHT22;39197;53.200;5.792;2024-01-30T08:08:36;7.90;99.90
53310;DHT22;39197;53.200;5.792;2024-01-30T08:11:03;8.00;99.90
53310;DHT22;39197;53.200;5.792;2024-01-30T08:13:29;8.10;99.90
53310;DHT22;39197;53.200;5.792;2024-01-30T08:15:54;8.10;99.90
53310;DHT22;39197;53.200;5.792;2024-01-30T08:18:20;8.30;99.90
53310;DHT22;39197;53.200;5.792;2024-01-30T08:20:45;8.50;99.90
53310;DHT22;39197;53.200;5.792;2024-01-30T08:23:11;8.50;99.90
53310;DHT22;39197;53.200;5.792;2024-01-30T08:25:37;8.60;99.90
53310;DHT22;39197;53.200;5.792;2024-01-30T08:28:03;8.70;99.90
53310;DHT22;39197;53.200;5.792;2024-01-30T08:30:29;8.80;99.90
53310;DHT22;39197;53.200;5.792;2024-01-30T08:32:55;8.70;99.90
53310;DHT22;39197;53.200;5.792;2024-01-30T08:35:20;8.90;99.90
53310;DHT22;39197;53.200;5.792;2024-01-30T08:37:46;8.90;99.90
53310;DHT22;39197;53.200;5.792;2024-01-30T08:40:12;9.00;99.90
53310;DHT22;39197;53.200;5.792;2024-01-30T08:42:37;9.10;99.90
53310;DHT22;39197;53.200;5.792;2024-01-30T08:45:04;9.20;99.90
53310;DHT22;39197;53.200;5.792;2024-01-30T08:47:30;9.20;99.90
53310;DHT22;39197;53.200;5.792;2024-01-30T08:49:56;9.30;99.90
53310;DHT22;39197;53.200;5.792;2024-01-30T08:52:22;9.30;99.90
53310;DHT22;39197;53.200;5.792;2024-01-30T08:54:47;9.40;99.90
53310;DHT22;39197;53.200;5.792;2024-01-30T08:57:13;9.50;99.90
53310;DHT22;39197;53.200;5.792;2024-01-30T08:59:38;9.50;99.90
53310;DHT22;39197;53.200;5.792;2024-01-30T09:02:04;9.50;99.90
53310;DHT22;39197;53.200;5.792;2024-01-30T09:04:30;9.50;99.90
53310;DHT22;39197;53.200;5.792;2024-01-30T09:06:56;9.50;99.90
53310;DHT22;39197;53.200;5.792;2024-01-30T09:09:21;9.40;99.90
53310;DHT22;39197;53.200;5.792;2024-01-30T09:11:47;9.50;99.90
53310;DHT22;39197;53.200;5.792;2024-01-30T09:14:13;9.50;99.90
53310;DHT22;39197;53.200;5.792;2024-01-30T09:16:38;9.50;99.90
53310;DHT22;39197;53.200;5.792;2024-01-30T09:19:04;9.50;99.90
53310;DHT22;39197;53.200;5.792;2024-01-30T09:21:30;9.60;99.90
53310;DHT22;39197;53.200;5.792;2024-01-30T09:24:01;9.60;99.90
53310;DHT22;39197;53.200;5.792;2024-01-30T09:26:28;9.70;99.90
53310;DHT22;39197;53.200;5.792;2024-01-30T09:28:53;9.70;99.90
53310;DHT22;39197;53.200;5.792;2024-01-30T09:31:19;9.70;99.90
53310;DHT22;39197;53.200;5.792;2024-01-30T09:33:45;9.60;99.90
53310;DHT22;39197;53.200;5.792;2024-01-30T09:36:12;9.60;99.90
53310;DHT22;39197;53.200;5.792;2024-01-30T09:38:40;9.60;99.90
53310;DHT22;39197;53.200;5.792;2024-01-30T09:41:09;9.60;99.90
53310;DHT22;39197;53.200;5.792;2024-01-30T09:43:34;9.60;99.90
53310;DHT22;39197;53.200;5.792;2024-01-30T09:46:02;9.60;99.90
53310;DHT22;39197;53.200;5.792;2024-01-30T09:48:30;9.60;99.90
53310;DHT22;39197;53.200;5.792;2024-01-30T09:50:57;9.60;99.90
53310;DHT22;39197;53.200;5.792;2024-01-30T09:53:23;9.60;99.90
53310;DHT22;39197;53.200;5.792;2024-01-30T09:55:50;9.70;99.90
53310;DHT22;39197;53.200;5.792;2024-01-30T09:58:16;9.60;99.90
53310;DHT22;39197;53.200;5.792;2024-01-30T10:00:42;9.70;99.90
53310;DHT22;39197;53.200;5.792;2024-01-30T10:03:08;9.60;99.90
53310;DHT22;39197;53.200;5.792;2024-01-30T10:05:35;9.70;99.90
53310;DHT22;39197;53.200;5.792;2024-01-30T10:08:06;9.60;99.90
53310;DHT22;39197;53.200;5.792;2024-01-30T10:10:34;9.70;99.90
53310;DHT22;39197;53.200;5.792;2024-01-30T10:13:00;9.60;99.90
53310;DHT22;39197;53.200;5.792;2024-01-30T10:15:28;9.50;99.90
53310;DHT22;39197;53.200;5.792;2024-01-30T10:17:53;9.60;99.90
53310;DHT22;39197;53.200;5.792;2024-01-30T10:20:19;9.50;99.90
53310;DHT22;39197;53.200;5.792;2024-01-30T10:22:48;9.40;99.90
53310;DHT22;39197;53.200;5.792;2024-01-30T10:25:15;9.40;99.90
53310;DHT22;39197;53.200;5.792;2024-01-30T10:27:40;9.40;99.90
53310;DHT22;39197;53.200;5.792;2024-01-30T10:30:07;9.40;99.90
53310;DHT22;39197;53.200;5.792;2024-01-30T10:32:33;9.30;99.90
53310;DHT22;39197;53.200;5.792;2024-01-30T10:34:59;9.30;99.90
53310;DHT22;39197;53.200;5.792;2024-01-30T10:37:25;9.10;99.90
53310;DHT22;39197;53.200;5.792;2024-01-30T10:39:53;9.20;99.90
53310;DHT22;39197;53.200;5.792;2024-01-30T10:42:21;9.20;99.90
53310;DHT22;39197;53.200;5.792;2024-01-30T10:47:29;9.10;99.90
53310;DHT22;39197;53.200;5.792;2024-01-30T10:49:56;9.00;99.90
53310;DHT22;39197;53.200;5.792;2024-01-30T10:52:23;8.90;99.90
53310;DHT22;39197;53.200;5.792;2024-01-30T10:54:54;8.90;99.90
53310;DHT22;39197;53.200;5.792;2024-01-30T10:57:23;8.80;99.90
53310;DHT22;39197;53.200;5.792;2024-01-30T10:59:49;8.90;99.90
53310;DHT22;39197;53.200;5.792;2024-01-30T11:02:16;8.80;99.90
53310;DHT22;39197;53.200;5.792;2024-01-30T11:04:42;8.70;99.90
53310;DHT22;39197;53.200;5.792;2024-01-30T11:07:17;8.90;99.90
53310;DHT22;39197;53.200;5.792;2024-01-30T11:09:53;8.80;99.90
53310;DHT22;39197;53.200;5.792;2024-01-30T11:12:23;8.80;99.90
53310;DHT22;39197;53.200;5.792;2024-01-30T11:15:03;8.70;99.90
53310;DHT22;39197;53.200;5.792;2024-01-30T11:17:43;8.70;99.90
53310;DHT22;39197;53.200;5.792;2024-01-30T11:22:41;8.60;99.90
53310;DHT22;39197;53.200;5.792;2024-01-30T11:25:11;8.60;99.90
53310;DHT22;39197;53.200;5.792;2024-01-30T11:27:38;8.60;99.90
53310;DHT22;39197;53.200;5.792;2024-01-30T11:30:04;8.60;99.90
53310;DHT22;39197;53.200;5.792;2024-01-30T11:32:30;8.70;99.90
53310;DHT22;39197;53.200;5.792;2024-01-30T11:34:56;8.70;99.90
53310;DHT22;39197;53.200;5.792;2024-01-30T11:37:25;8.60;99.90
53310;DHT22;39197;53.200;5.792;2024-01-30T11:39:53;8.50;99.90
53310;DHT22;39197;53.200;5.792;2024-01-30T11:42:19;8.40;99.90
53310;DHT22;39197;53.200;5.792;2024-01-30T11:44:48;8.40;99.90
53310;DHT22;39197;53.200;5.792;2024-01-30T11:47:14;8.50;99.90
53310;DHT22;39197;53.200;5.792;2024-01-30T11:49:41;8.40;99.90
53310;DHT22;39197;53.200;5.792;2024-01-30T11:52:07;8.40;99.90
53310;DHT22;39197;53.200;5.792;2024-01-30T11:54:32;8.40;99.90
53310;DHT22;39197;53.200;5.792;2024-01-30T11:56:58;8.40;99.90
53310;DHT22;39197;53.200;5.792;2024-01-30T11:59:24;8.40;99.90
53310;DHT22;39197;53.200;5.792;2024-01-30T12:01:52;8.30;99.90
53310;DHT22;39197;53.200;5.792;2024-01-30T12:04:18;8.20;99.90
53310;DHT22;39197;53.200;5.792;2024-01-30T12:06:43;8.30;99.90
53310;DHT22;39197;53.200;5.792;2024-01-30T12:09:09;8.20;99.90
53310;DHT22;39197;53.200;5.792;2024-01-30T12:11:47;8.30;99.90
53310;DHT22;39197;53.200;5.792;2024-01-30T12:14:14;8.30;99.90
53310;DHT22;39197;53.200;5.792;2024-01-30T12:16:40;8.30;99.90
53310;DHT22;39197;53.200;5.792;2024-01-30T12:19:07;8.30;99.90
53310;DHT22;39197;53.200;5.792;2024-01-30T12:21:34;8.30;99.90
53310;DHT22;39197;53.200;5.792;2024-01-30T12:24:00;8.20;99.90
53310;DHT22;39197;53.200;5.792;2024-01-30T12:26:26;8.20;99.90
53310;DHT22;39197;53.200;5.792;2024-01-30T12:28:55;8.30;99.90
53310;DHT22;39197;53.200;5.792;2024-01-30T12:31:32;8.30;99.90
53310;DHT22;39197;53.200;5.792;2024-01-30T12:34:00;8.20;99.90
53310;DHT22;39197;53.200;5.792;2024-01-30T12:36:25;8.30;99.90
53310;DHT22;39197;53.200;5.792;2024-01-30T12:38:51;8.20;99.90
53310;DHT22;39197;53.200;5.792;2024-01-30T12:41:17;8.20;99.90
53310;DHT22;39197;53.200;5.792;2024-01-30T12:43:43;8.20;99.90
53310;DHT22;39197;53.200;5.792;2024-01-30T12:46:09;8.30;99.90
53310;DHT22;39197;53.200;5.792;2024-01-30T12:48:35;8.30;99.90
53310;DHT22;39197;53.200;5.792;2024-01-30T12:51:00;8.30;99.90
53310;DHT22;39197;53.200;5.792;2024-01-30T12:53:26;8.30;99.90
53310;DHT22;39197;53.200;5.792;2024-01-30T12:55:51;8.30;99.90
53310;DHT22;39197;53.200;5.792;2024-01-30T12:58:18;8.30;99.90
53310;DHT22;39197;53.200;5.792;2024-01-30T13:00:44;8.20;99.90
53310;DHT22;39197;53.200;5.792;2024-01-30T13:03:10;8.20;99.90
53310;DHT22;39197;53.200;5.792;2024-01-30T13:05:36;8.20;99.90
53310;DHT22;39197;53.200;5.792;2024-01-30T13:08:02;8.20;99.90
53310;DHT22;39197;53.200;5.792;2024-01-30T13:10:28;8.20;99.90
53310;DHT22;39197;53.200;5.792;2024-01-30T13:12:53;8.10;99.90
53310;DHT22;39197;53.200;5.792;2024-01-30T13:15:19;8.20;99.90
53310;DHT22;39197;53.200;5.792;2024-01-30T13:17:45;8.20;99.90
53310;DHT22;39197;53.200;5.792;2024-01-30T13:20:13;8.10;99.90
53310;DHT22;39197;53.200;5.792;2024-01-30T13:22:43;8.20;99.90
53310;DHT22;39197;53.200;5.792;2024-01-30T13:25:08;8.00;99.90
53310;DHT22;39197;53.200;5.792;2024-01-30T13:27:34;8.20;99.90
53310;DHT22;39197;53.200;5.792;2024-01-30T13:30:00;8.20;99.90
53310;DHT22;39197;53.200;5.792;2024-01-30T13:32:25;8.00;99.90
53310;DHT22;39197;53.200;5.792;2024-01-30T13:34:51;8.00;99.90
53310;DHT22;39197;53.200;5.792;2024-01-30T13:37:17;8.00;99.90
53310;DHT22;39197;53.200;5.792;2024-01-30T13:39:42;8.00;99.90
53310;DHT22;39197;53.200;5.792;2024-01-30T13:42:08;8.00;99.90
53310;DHT22;39197;53.200;5.792;2024-01-30T13:44:35;8.10;99.90
53310;DHT22;39197;53.200;5.792;2024-01-30T13:47:01;8.10;99.90
53310;DHT22;39197;53.200;5.792;2024-01-30T13:49:26;8.00;99.90
53310;DHT22;39197;53.200;5.792;2024-01-30T13:51:52;8.00;99.90
53310;DHT22;39197;53.200;5.792;2024-01-30T13:54:18;7.90;99.90
53310;DHT22;39197;53.200;5.792;2024-01-30T13:56:43;8.00;99.90
53310;DHT22;39197;53.200;5.792;2024-01-30T13:59:09;7.90;99.90
53310;DHT22;39197;53.200;5.792;2024-01-30T14:01:34;8.00;99.90
53310;DHT22;39197;53.200;5.792;2024-01-30T14:04:00;8.00;99.90
53310;DHT22;39197;53.200;5.792;2024-01-30T14:06:26;8.10;99.90
53310;DHT22;39197;53.200;5.792;2024-01-30T14:08:51;8.10;99.90
53310;DHT22;39197;53.200;5.792;2024-01-30T14:11:17;7.90;99.90
53310;DHT22;39197;53.200;5.792;2024-01-30T14:13:42;7.90;99.90
53310;DHT22;39197;53.200;5.792;2024-01-30T14:16:08;7.80;99.90
53310;DHT22;39197;53.200;5.792;2024-01-30T14:18:33;7.90;99.90
53310;DHT22;39197;53.200;5.792;2024-01-30T14:20:59;8.10;99.90
53310;DHT22;39197;53.200;5.792;2024-01-30T14:23:25;8.00;99.90
53310;DHT22;39197;53.200;5.792;2024-01-30T14:25:50;8.10;99.90
53310;DHT22;39197;53.200;5.792;2024-01-30T14:28:17;8.10;99.90
53310;DHT22;39197;53.200;5.792;2024-01-30T14:30:42;8.10;99.90
53310;DHT22;39197;53.200;5.792;2024-01-30T14:33:08;8.10;99.90
53310;DHT22;39197;53.200;5.792;2024-01-30T14:35:33;7.70;99.90
53310;DHT22;39197;53.200;5.792;2024-01-30T14:37:59;8.10;99.90
53310;DHT22;39197;53.200;5.792;2024-01-30T14:40:25;7.80;99.90
53310;DHT22;39197;53.200;5.792;2024-01-30T14:42:50;7.80;99.90
53310;DHT22;39197;53.200;5.792;2024-01-30T14:45:16;7.80;99.90
53310;DHT22;39197;53.200;5.792;2024-01-30T14:47:42;8.00;99.90
53310;DHT22;39197;53.200;5.792;2024-01-30T14:50:08;7.70;99.90
53310;DHT22;39197;53.200;5.792;2024-01-30T14:52:34;8.10;99.90
53310;DHT22;39197;53.200;5.792;2024-01-30T14:55:00;7.70;99.90
53310;DHT22;39197;53.200;5.792;2024-01-30T14:57:25;8.00;99.90
53310;DHT22;39197;53.200;5.792;2024-01-30T14:59:51;8.00;99.90
53310;DHT22;39197;53.200;5.792;2024-01-30T15:02:16;7.90;99.90
53310;DHT22;39197;53.200;5.792;2024-01-30T15:04:42;7.90;99.90
53310;DHT22;39197;53.200;5.792;2024-01-30T15:07:08;8.00;99.90
53310;DHT22;39197;53.200;5.792;2024-01-30T15:09:34;7.60;99.90
53310;DHT22;39197;53.200;5.792;2024-01-30T15:11:59;7.60;99.90
53310;DHT22;39197;53.200;5.792;2024-01-30T15:14:25;7.70;99.90
53310;DHT22;39197;53.200;5.792;2024-01-30T15:16:51;7.60;99.90
53310;DHT22;39197;53.200;5.792;2024-01-30T15:19:16;7.80;99.90
53310;DHT22;39197;53.200;5.792;2024-01-30T15:21:42;7.50;99.90
53310;DHT22;39197;53.200;5.792;2024-01-30T15:24:08;7.40;99.90
53310;DHT22;39197;53.200;5.792;2024-01-30T15:26:33;7.70;99.90
53310;DHT22;39197;53.200;5.792;2024-01-30T15:28:59;7.60;99.90
53310;DHT22;39197;53.200;5.792;2024-01-30T15:31:24;7.80;99.90
53310;DHT22;39197;53.200;5.792;2024-01-30T15:33:50;7.30;99.90
53310;DHT22;39197;53.200;5.792;2024-01-30T15:36:15;7.30;99.90
53310;DHT22;39197;53.200;5.792;2024-01-30T15:38:42;7.60;99.90
53310;DHT22;39197;53.200;5.792;2024-01-30T15:41:07;7.40;99.90
53310;DHT22;39197;53.200;5.792;2024-01-30T15:43:33;7.60;99.90